sensor_id;sensor_type;location;lat;lon;timestamp;pressure;altitude;pressure_sealevel;temperature;humidity
9261;BME280;4667;42.726;23.252;2022-09-21T00:00:11;95358.88;;;10.17;nan
9261;BME280;4667;42.726;23.252;2022-09-21T00:02:38;95362.75;;;10.23;nan
9261;BME280;4667;42.726;23.252;2022-09-21T00:05:07;95364.28;;;10.17;nan
9261;BME280;4667;42.726;23.252;2022-09-21T00:07:34;95363.44;;;10.06;nan
9261;BME280;4667;42.726;23.252;2022-09-21T00:10:01;95366.41;;;9.87;nan
9261;BME280;4667;42.726;23.252;2022-09-21T00:12:27;95360.91;;;9.72;nan
9261;BME280;4667;42.726;23.252;2022-09-21T00:14:55;95359.44;;;9.82;nan
9261;BME280;4667;42.726;23.252;2022-09-21T00:17:22;95367.50;;;9.75;nan
9261;BME280;4667;42.726;23.252;2022-09-21T00:19:49;95369.63;;;9.48;nan
9261;BME280;4667;42.726;23.252;2022-09-21T00:22:18;95369.59;;;9.41;nan
9261;BME280;4667;42.726;23.252;2022-09-21T00:24:45;95370.63;;;9.26;nan
9261;BME280;4667;42.726;23.252;2022-09-21T00:27:12;95367.16;;;9.25;nan
9261;BME280;4667;42.726;23.252;2022-09-21T00:29:38;95362.81;;;9.10;nan
9261;BME280;4667;42.726;23.252;2022-09-21T00:32:05;95370.81;;;8.99;nan
9261;BME280;4667;42.726;23.252;2022-09-21T00:34:32;95375.72;;;8.87;nan
9261;BME280;4667;42.726;23.252;2022-09-21T00:36:59;95363.25;;;8.75;nan
9261;BME280;4667;42.726;23.252;2022-09-21T00:39:27;95375.06;;;8.60;nan
9261;BME280;4667;42.726;23.252;2022-09-21T00:41:53;95371.81;;;8.47;nan
9261;BME280;4667;42.726;23.252;2022-09-21T00:44:27;95373.06;;;8.53;nan
9261;BME280;4667;42.726;23.252;2022-09-21T00:46:56;95374.41;;;8.37;nan
9261;BME280;4667;42.726;23.252;2022-09-21T00:49:24;95369.34;;;8.32;nan
9261;BME280;4667;42.726;23.252;2022-09-21T00:51:55;95366.59;;;8.28;nan
9261;BME280;4667;42.726;23.252;2022-09-21T00:54:24;95368.78;;;8.19;nan
9261;BME280;4667;42.726;23.252;2022-09-21T00:56:55;95374.06;;;8.08;nan
9261;BME280;4667;42.726;23.252;2022-09-21T00:59:25;95367.78;;;8.01;nan
9261;BME280;4667;42.726;23.252;2022-09-21T01:01:52;95373.06;;;7.90;nan
9261;BME280;4667;42.726;23.252;2022-09-21T01:04:20;95381.81;;;7.84;nan
9261;BME280;4667;42.726;23.252;2022-09-21T01:06:48;95376.69;;;7.75;nan
9261;BME280;4667;42.726;23.252;2022-09-21T01:09:15;95375.94;;;7.74;nan
9261;BME280;4667;42.726;23.252;2022-09-21T01:11:53;95373.84;;;7.64;nan
9261;BME280;4667;42.726;23.252;2022-09-21T01:14:34;95373.38;;;7.59;nan
9261;BME280;4667;42.726;23.252;2022-09-21T01:17:13;95374.06;;;7.52;nan
9261;BME280;4667;42.726;23.252;2022-09-21T01:22:51;95359.91;;;7.32;nan
9261;BME280;4667;42.726;23.252;2022-09-21T01:25:28;95365.97;;;7.26;nan
9261;BME280;4667;42.726;23.252;2022-09-21T01:30:44;95352.97;;;7.31;nan
9261;BME280;4667;42.726;23.252;2022-09-21T01:33:16;95349.53;;;7.34;nan
9261;BME280;4667;42.726;23.252;2022-09-21T01:35:48;95355.97;;;7.26;nan
9261;BME280;4667;42.726;23.252;2022-09-21T01:38:18;95357.31;;;7.13;nan
9261;BME280;4667;42.726;23.252;2022-09-21T01:40:51;95359.69;;;7.18;nan
9261;BME280;4667;42.726;23.252;2022-09-21T01:43:22;95353.88;;;7.16;nan
9261;BME280;4667;42.726;23.252;2022-09-21T01:45:53;95358.28;;;7.28;nan
9261;BME280;4667;42.726;23.252;2022-09-21T01:48:24;95359.03;;;7.25;nan
9261;BME280;4667;42.726;23.252;2022-09-21T01:50:53;95360.66;;;7.33;nan
9261;BME280;4667;42.726;23.252;2022-09-21T01:53:27;95359.06;;;7.28;nan
9261;BME280;4667;42.726;23.252;2022-09-21T01:55:58;95361.53;;;7.37;nan
9261;BME280;4667;42.726;23.252;2022-09-21T01:58:30;95361.41;;;7.30;nan
9261;BME280;4667;42.726;23.252;2022-09-21T02:01:01;95355.88;;;7.19;nan
9261;BME280;4667;42.726;23.252;2022-09-21T02:03:31;95355.78;;;7.16;nan
9261;BME280;4667;42.726;23.252;2022-09-21T02:05:59;95356.66;;;7.20;nan
9261;BME280;4667;42.726;23.252;2022-09-21T02:08:29;95354.72;;;7.20;nan
9261;BME280;4667;42.726;23.252;2022-09-21T02:10:58;95359.75;;;7.22;nan
9261;BME280;4667;42.726;23.252;2022-09-21T02:13:29;95367.34;;;7.16;nan
9261;BME280;4667;42.726;23.252;2022-09-21T02:16:25;95363.53;;;7.17;nan
9261;BME280;4667;42.726;23.252;2022-09-21T02:19:04;95366.53;;;7.12;nan
9261;BME280;4667;42.726;23.252;2022-09-21T02:21:46;95363.47;;;7.14;nan
9261;BME280;4667;42.726;23.252;2022-09-21T02:24:24;95370.00;;;7.13;nan
9261;BME280;4667;42.726;23.252;2022-09-21T02:26:57;95369.16;;;7.09;nan
9261;BME280;4667;42.726;23.252;2022-09-21T02:29:36;95367.84;;;6.99;nan
9261;BME280;4667;42.726;23.252;2022-09-21T02:32:09;95367.97;;;7.06;nan
9261;BME280;4667;42.726;23.252;2022-09-21T02:34:43;95373.69;;;7.05;nan
9261;BME280;4667;42.726;23.252;2022-09-21T02:37:23;95368.66;;;7.03;nan
9261;BME280;4667;42.726;23.252;2022-09-21T02:39:58;95368.50;;;6.92;nan
9261;BME280;4667;42.726;23.252;2022-09-21T02:42:30;95370.06;;;6.93;nan
9261;BME280;4667;42.726;23.252;2022-09-21T02:45:02;95359.41;;;7.01;nan
9261;BME280;4667;42.726;23.252;2022-09-21T02:47:35;95368.16;;;6.94;nan
9261;BME280;4667;42.726;23.252;2022-09-21T02:50:08;95365.16;;;6.99;nan
9261;BME280;4667;42.726;23.252;2022-09-21T02:52:40;95368.16;;;6.94;nan
9261;BME280;4667;42.726;23.252;2022-09-21T02:55:09;95364.63;;;6.90;nan
9261;BME280;4667;42.726;23.252;2022-09-21T02:57:37;95368.16;;;6.94;nan
9261;BME280;4667;42.726;23.252;2022-09-21T03:00:05;95367.31;;;6.90;nan
9261;BME280;4667;42.726;23.252;2022-09-21T03:02:37;95366.19;;;6.91;nan
9261;BME280;4667;42.726;23.252;2022-09-21T03:05:05;95368.09;;;6.90;nan
9261;BME280;4667;42.726;23.252;2022-09-21T03:07:32;95370.38;;;6.88;nan
9261;BME280;4667;42.726;23.252;2022-09-21T03:10:00;95367.31;;;6.90;nan
9261;BME280;4667;42.726;23.252;2022-09-21T03:12:27;95368.31;;;6.82;nan
9261;BME280;4667;42.726;23.252;2022-09-21T03:14:54;95375.31;;;6.86;nan
9261;BME280;4667;42.726;23.252;2022-09-21T03:17:21;95374.19;;;6.87;nan
9261;BME280;4667;42.726;23.252;2022-09-21T03:19:49;95372.94;;;6.81;nan
9261;BME280;4667;42.726;23.252;2022-09-21T03:22:19;95375.56;;;6.78;nan
9261;BME280;4667;42.726;23.252;2022-09-21T03:24:46;95371.31;;;6.77;nan
9261;BME280;4667;42.726;23.252;2022-09-21T03:27:13;95376.16;;;6.68;nan
9261;BME280;4667;42.726;23.252;2022-09-21T03:29:41;95380.56;;;6.79;nan
9261;BME280;4667;42.726;23.252;2022-09-21T03:32:08;95371.03;;;6.82;nan
9261;BME280;4667;42.726;23.252;2022-09-21T03:34:34;95378.91;;;6.71;nan
9261;BME280;4667;42.726;23.252;2022-09-21T03:37:05;95375.97;;;6.80;nan
9261;BME280;4667;42.726;23.252;2022-09-21T03:39:31;95378.66;;;6.80;nan
9261;BME280;4667;42.726;23.252;2022-09-21T03:41:58;95381.97;;;6.92;nan
9261;BME280;4667;42.726;23.252;2022-09-21T03:44:25;95389.25;;;6.92;nan
9261;BME280;4667;42.726;23.252;2022-09-21T03:46:52;95380.00;;;6.89;nan
9261;BME280;4667;42.726;23.252;2022-09-21T03:49:19;95385.13;;;6.75;nan
9261;BME280;4667;42.726;23.252;2022-09-21T03:51:46;95389.97;;;6.66;nan
9261;BME280;4667;42.726;23.252;2022-09-21T03:54:14;95390.19;;;6.57;nan
9261;BME280;4667;42.726;23.252;2022-09-21T03:56:41;95389.38;;;6.76;nan
9261;BME280;4667;42.726;23.252;2022-09-21T03:59:08;95388.91;;;6.71;nan
9261;BME280;4667;42.726;23.252;2022-09-21T04:01:34;95383.38;;;6.64;nan
9261;BME280;4667;42.726;23.252;2022-09-21T04:04:02;95379.75;;;6.75;nan
9261;BME280;4667;42.726;23.252;2022-09-21T04:06:28;95380.31;;;6.84;nan
9261;BME280;4667;42.726;23.252;2022-09-21T04:08:55;95379.56;;;6.65;nan
9261;BME280;4667;42.726;23.252;2022-09-21T04:11:23;95383.34;;;6.60;nan
9261;BME280;4667;42.726;23.252;2022-09-21T04:13:50;95386.75;;;6.80;nan
9261;BME280;4667;42.726;23.252;2022-09-21T04:16:22;95385.31;;;6.86;nan
9261;BME280;4667;42.726;23.252;2022-09-21T04:18:50;95383.78;;;6.85;nan
9261;BME280;4667;42.726;23.252;2022-09-21T04:21:17;95381.13;;;6.88;nan
9261;BME280;4667;42.726;23.252;2022-09-21T04:23:44;95383.78;;;6.85;nan
9261;BME280;4667;42.726;23.252;2022-09-21T04:26:24;95383.59;;;6.97;nan
9261;BME280;4667;42.726;23.252;2022-09-21T04:28:51;95377.00;;;6.94;nan
9261;BME280;4667;42.726;23.252;2022-09-21T04:31:18;95375.88;;;6.95;nan
9261;BME280;4667;42.726;23.252;2022-09-21T04:33:47;95386.34;;;7.01;nan
9261;BME280;4667;42.726;23.252;2022-09-21T04:36:15;95385.50;;;6.96;nan
9261;BME280;4667;42.726;23.252;2022-09-21T04:38:42;95391.72;;;7.01;nan
9261;BME280;4667;42.726;23.252;2022-09-21T04:41:09;95396.28;;;6.96;nan
9261;BME280;4667;42.726;23.252;2022-09-21T04:43:37;95394.91;;;7.06;nan
9261;BME280;4667;42.726;23.252;2022-09-21T04:46:07;95397.63;;;7.10;nan
9261;BME280;4667;42.726;23.252;2022-09-21T04:48:35;95392.06;;;7.22;nan
9261;BME280;4667;42.726;23.252;2022-09-21T04:51:02;95404.56;;;7.33;nan
9261;BME280;4667;42.726;23.252;2022-09-21T04:53:30;95396.91;;;7.35;nan
9261;BME280;4667;42.726;23.252;2022-09-21T04:55:57;95391.94;;;7.37;nan
9261;BME280;4667;42.726;23.252;2022-09-21T04:58:24;95396.28;;;7.46;nan
9261;BME280;4667;42.726;23.252;2022-09-21T05:00:52;95406.66;;;7.44;nan
9261;BME280;4667;42.726;23.252;2022-09-21T05:03:21;95406.25;;;7.42;nan
9261;BME280;4667;42.726;23.252;2022-09-21T05:05:50;95405.69;;;7.55;nan
9261;BME280;4667;42.726;23.252;2022-09-21T05:08:17;95406.94;;;7.61;nan
9261;BME280;4667;42.726;23.252;2022-09-21T05:11:06;95404.75;;;7.70;nan
9261;BME280;4667;42.726;23.252;2022-09-21T05:13:32;95407.91;;;7.76;nan
9261;BME280;4667;42.726;23.252;2022-09-21T05:16:01;95416.66;;;7.69;nan
9261;BME280;4667;42.726;23.252;2022-09-21T05:18:27;95413.16;;;7.65;nan
9261;BME280;4667;42.726;23.252;2022-09-21T05:20:54;95410.59;;;7.76;nan
9261;BME280;4667;42.726;23.252;2022-09-21T05:23:21;95410.00;;;7.86;nan
9261;BME280;4667;42.726;23.252;2022-09-21T05:25:49;95407.44;;;7.70;nan
9261;BME280;4667;42.726;23.252;2022-09-21T05:28:16;95405.31;;;7.83;nan
9261;BME280;4667;42.726;23.252;2022-09-21T05:30:44;95416.97;;;7.91;nan
9261;BME280;4667;42.726;23.252;2022-09-21T05:33:15;95402.50;;;8.02;nan
9261;BME280;4667;42.726;23.252;2022-09-21T05:35:55;95403.06;;;8.18;nan
9261;BME280;4667;42.726;23.252;2022-09-21T05:38:24;95398.25;;;8.31;nan
9261;BME280;4667;42.726;23.252;2022-09-21T05:40:52;95394.94;;;8.15;nan
9261;BME280;4667;42.726;23.252;2022-09-21T05:43:19;95393.19;;;8.30;nan
9261;BME280;4667;42.726;23.252;2022-09-21T05:45:50;95393.47;;;8.51;nan
9261;BME280;4667;42.726;23.252;2022-09-21T05:48:22;95392.72;;;8.54;nan
9261;BME280;4667;42.726;23.252;2022-09-21T05:50:55;95400.50;;;8.59;nan
9261;BME280;4667;42.726;23.252;2022-09-21T05:56:28;95392.13;;;8.71;nan
9261;BME280;4667;42.726;23.252;2022-09-21T05:59:07;95400.28;;;8.75;nan
9261;BME280;4667;42.726;23.252;2022-09-21T06:01:45;95392.69;;;8.87;nan
9261;BME280;4667;42.726;23.252;2022-09-21T06:04:19;95394.78;;;9.05;nan
9261;BME280;4667;42.726;23.252;2022-09-21T06:06:45;95401.06;;;9.16;nan
9261;BME280;4667;42.726;23.252;2022-09-21T06:09:12;95404.97;;;9.22;nan
9261;BME280;4667;42.726;23.252;2022-09-21T06:11:39;95402.72;;;9.31;nan
9261;BME280;4667;42.726;23.252;2022-09-21T06:14:06;95403.13;;;9.33;nan
9261;BME280;4667;42.726;23.252;2022-09-21T06:16:37;95402.44;;;9.43;nan
9261;BME280;4667;42.726;23.252;2022-09-21T06:19:04;95408.69;;;9.54;nan
9261;BME280;4667;42.726;23.252;2022-09-21T06:21:32;95395.63;;;9.63;nan
9261;BME280;4667;42.726;23.252;2022-09-21T06:23:58;95401.06;;;9.67;nan
9261;BME280;4667;42.726;23.252;2022-09-21T06:26:26;95409.28;;;9.81;nan
9261;BME280;4667;42.726;23.252;2022-09-21T06:28:54;95397.78;;;9.98;nan
9261;BME280;4667;42.726;23.252;2022-09-21T06:31:20;95402.16;;;10.17;nan
9261;BME280;4667;42.726;23.252;2022-09-21T06:33:47;95400.31;;;10.39;nan
9261;BME280;4667;42.726;23.252;2022-09-21T06:36:14;95400.75;;;10.51;nan
9261;BME280;4667;42.726;23.252;2022-09-21T06:38:43;95411.69;;;10.80;nan
9261;BME280;4667;42.726;23.252;2022-09-21T06:41:10;95412.09;;;10.92;nan
9261;BME280;4667;42.726;23.252;2022-09-21T06:43:36;95411.34;;;11.10;nan
9261;BME280;4667;42.726;23.252;2022-09-21T06:46:04;95404.03;;;11.24;nan
9261;BME280;4667;42.726;23.252;2022-09-21T06:48:34;95410.22;;;11.14;nan
9261;BME280;4667;42.726;23.252;2022-09-21T06:51:08;95414.88;;;11.45;nan
9261;BME280;4667;42.726;23.252;2022-09-21T06:53:37;95414.47;;;11.86;nan
9261;BME280;4667;42.726;23.252;2022-09-21T06:56:09;95414.84;;;12.06;nan
9261;BME280;4667;42.726;23.252;2022-09-21T06:58:36;95411.69;;;12.21;nan
9261;BME280;4667;42.726;23.252;2022-09-21T07:01:07;95414.78;;;12.31;nan
9261;BME280;4667;42.726;23.252;2022-09-21T07:03:51;95409.31;;;12.45;nan
9261;BME280;4667;42.726;23.252;2022-09-21T07:06:21;95417.81;;;12.47;nan
9261;BME280;4667;42.726;23.252;2022-09-21T07:08:50;95413.81;;;12.76;nan
9261;BME280;4667;42.726;23.252;2022-09-21T07:11:26;95402.91;;;12.83;nan
9261;BME280;4667;42.726;23.252;2022-09-21T07:13:54;95409.03;;;13.01;nan
9261;BME280;4667;42.726;23.252;2022-09-21T07:16:22;95404.72;;;13.15;nan
9261;BME280;4667;42.726;23.252;2022-09-21T07:18:54;95417.09;;;13.19;nan
9261;BME280;4667;42.726;23.252;2022-09-21T07:21:23;95414.66;;;13.39;nan
9261;BME280;4667;42.726;23.252;2022-09-21T07:23:52;95397.16;;;13.36;nan
9261;BME280;4667;42.726;23.252;2022-09-21T07:26:35;95406.63;;;13.18;nan
9261;BME280;4667;42.726;23.252;2022-09-21T07:29:07;95417.72;;;13.41;nan
9261;BME280;4667;42.726;23.252;2022-09-21T07:31:38;95405.06;;;13.20;nan
9261;BME280;4667;42.726;23.252;2022-09-21T07:34:05;95399.22;;;13.22;nan
9261;BME280;4667;42.726;23.252;2022-09-21T07:36:31;95415.50;;;13.25;nan
9261;BME280;4667;42.726;23.252;2022-09-21T07:38:58;95415.56;;;13.11;nan
9261;BME280;4667;42.726;23.252;2022-09-21T07:41:26;95413.41;;;13.47;nan
9261;BME280;4667;42.726;23.252;2022-09-21T07:43:53;95409.38;;;13.14;nan
9261;BME280;4667;42.726;23.252;2022-09-21T07:46:20;95410.41;;;13.31;nan
9261;BME280;4667;42.726;23.252;2022-09-21T07:48:47;95406.34;;;13.53;nan
9261;BME280;4667;42.726;23.252;2022-09-21T07:51:15;95411.84;;;13.49;nan
9261;BME280;4667;42.726;23.252;2022-09-21T07:53:42;95411.53;;;13.85;nan
9261;BME280;4667;42.726;23.252;2022-09-21T07:56:11;95409.13;;;13.94;nan
9261;BME280;4667;42.726;23.252;2022-09-21T07:58:40;95413.03;;;13.93;nan
9261;BME280;4667;42.726;23.252;2022-09-21T08:01:25;95414.31;;;14.19;nan
9261;BME280;4667;42.726;23.252;2022-09-21T08:03:53;95407.28;;;14.21;nan
9261;BME280;4667;42.726;23.252;2022-09-21T08:06:21;95404.44;;;14.32;nan
9261;BME280;4667;42.726;23.252;2022-09-21T08:08:48;95409.47;;;14.37;nan
9261;BME280;4667;42.726;23.252;2022-09-21T08:11:15;95400.28;;;14.24;nan
9261;BME280;4667;42.726;23.252;2022-09-21T08:13:44;95402.00;;;14.45;nan
9261;BME280;4667;42.726;23.252;2022-09-21T08:16:11;95395.31;;;14.53;nan
9261;BME280;4667;42.726;23.252;2022-09-21T08:18:39;95404.75;;;14.75;nan
9261;BME280;4667;42.726;23.252;2022-09-21T08:21:08;95407.41;;;14.79;nan
9261;BME280;4667;42.726;23.252;2022-09-21T08:23:35;95406.06;;;14.63;nan
9261;BME280;4667;42.726;23.252;2022-09-21T08:26:06;95398.25;;;14.65;nan
9261;BME280;4667;42.726;23.252;2022-09-21T08:28:33;95396.88;;;14.81;nan
9261;BME280;4667;42.726;23.252;2022-09-21T08:31:03;95396.78;;;15.18;nan
9261;BME280;4667;42.726;23.252;2022-09-21T08:33:32;95393.06;;;15.05;nan
9261;BME280;4667;42.726;23.252;2022-09-21T08:36:00;95385.28;;;15.30;nan
9261;BME280;4667;42.726;23.252;2022-09-21T08:38:31;95387.19;;;15.33;nan
9261;BME280;4667;42.726;23.252;2022-09-21T08:41:00;95382.34;;;15.18;nan
9261;BME280;4667;42.726;23.252;2022-09-21T08:43:31;95379.88;;;15.54;nan
9261;BME280;4667;42.726;23.252;2022-09-21T08:46:04;95373.22;;;15.78;nan
9261;BME280;4667;42.726;23.252;2022-09-21T08:48:37;95374.31;;;15.84;nan
9261;BME280;4667;42.726;23.252;2022-09-21T08:51:08;95376.00;;;15.98;nan
9261;BME280;4667;42.726;23.252;2022-09-21T08:53:38;95370.13;;;15.99;nan
9261;BME280;4667;42.726;23.252;2022-09-21T08:56:07;95370.69;;;16.10;nan
9261;BME280;4667;42.726;23.252;2022-09-21T08:58:36;95367.28;;;16.26;nan
9261;BME280;4667;42.726;23.252;2022-09-21T09:01:20;95349.66;;;16.27;nan
9261;BME280;4667;42.726;23.252;2022-09-21T09:04:03;95354.25;;;16.14;nan
9261;BME280;4667;42.726;23.252;2022-09-21T09:06:40;95356.56;;;16.35;nan
9261;BME280;4667;42.726;23.252;2022-09-21T09:09:41;95355.50;;;16.49;nan
9261;BME280;4667;42.726;23.252;2022-09-21T09:12:33;95353.91;;;16.31;nan
9261;BME280;4667;42.726;23.252;2022-09-21T09:15:19;95357.19;;;16.23;nan
9261;BME280;4667;42.726;23.252;2022-09-21T09:17:54;95356.06;;;16.40;nan
9261;BME280;4667;42.726;23.252;2022-09-21T09:20:28;95342.75;;;16.22;nan
9261;BME280;4667;42.726;23.252;2022-09-21T09:23:03;95351.94;;;16.32;nan
9261;BME280;4667;42.726;23.252;2022-09-21T09:25:35;95340.97;;;16.52;nan
9261;BME280;4667;42.726;23.252;2022-09-21T09:28:15;95342.78;;;16.62;nan
9261;BME280;4667;42.726;23.252;2022-09-21T09:30:42;95337.31;;;16.58;nan
9261;BME280;4667;42.726;23.252;2022-09-21T09:33:15;95340.47;;;16.57;nan
9261;BME280;4667;42.726;23.252;2022-09-21T09:35:47;95321.06;;;16.71;nan
9261;BME280;4667;42.726;23.252;2022-09-21T09:38:20;95331.81;;;16.98;nan
9261;BME280;4667;42.726;23.252;2022-09-21T09:41:03;95323.13;;;17.19;nan
9261;BME280;4667;42.726;23.252;2022-09-21T09:43:43;95329.56;;;16.93;nan
9261;BME280;4667;42.726;23.252;2022-09-21T09:46:18;95322.53;;;17.28;nan
9261;BME280;4667;42.726;23.252;2022-09-21T09:49:18;95318.56;;;17.12;nan
9261;BME280;4667;42.726;23.252;2022-09-21T09:51:47;95327.53;;;16.97;nan
9261;BME280;4667;42.726;23.252;2022-09-21T09:54:15;95318.75;;;17.22;nan
9261;BME280;4667;42.726;23.252;2022-09-21T09:56:43;95302.97;;;17.58;nan
9261;BME280;4667;42.726;23.252;2022-09-21T09:59:15;95311.88;;;17.46;nan
9261;BME280;4667;42.726;23.252;2022-09-21T10:01:45;95311.94;;;17.62;nan
9261;BME280;4667;42.726;23.252;2022-09-21T10:04:24;95316.25;;;18.62;nan
9261;BME280;4667;42.726;23.252;2022-09-21T10:06:52;95296.94;;;19.42;nan
9261;BME280;4667;42.726;23.252;2022-09-21T10:09:23;95295.88;;;20.08;nan
9261;BME280;4667;42.726;23.252;2022-09-21T10:11:51;95298.47;;;19.55;nan
9261;BME280;4667;42.726;23.252;2022-09-21T10:14:20;95286.88;;;20.08;nan
9261;BME280;4667;42.726;23.252;2022-09-21T10:16:50;95282.53;;;19.85;nan
9261;BME280;4667;42.726;23.252;2022-09-21T10:19:20;95278.91;;;19.88;nan
9261;BME280;4667;42.726;23.252;2022-09-21T10:21:53;95287.75;;;20.26;nan
9261;BME280;4667;42.726;23.252;2022-09-21T10:24:22;95284.31;;;20.88;nan
9261;BME280;4667;42.726;23.252;2022-09-21T10:26:51;95273.81;;;20.95;nan
9261;BME280;4667;42.726;23.252;2022-09-21T10:29:29;95265.44;;;21.66;nan
9261;BME280;4667;42.726;23.252;2022-09-21T10:32:02;95269.75;;;22.31;nan
9261;BME280;4667;42.726;23.252;2022-09-21T10:34:30;95261.66;;;22.09;nan
9261;BME280;4667;42.726;23.252;2022-09-21T10:37:00;95275.81;;;22.81;nan
9261;BME280;4667;42.726;23.252;2022-09-21T10:39:29;95265.81;;;23.25;nan
9261;BME280;4667;42.726;23.252;2022-09-21T10:41:59;95262.09;;;22.95;nan
9261;BME280;4667;42.726;23.252;2022-09-21T10:44:33;95268.47;;;22.68;nan
9261;BME280;4667;42.726;23.252;2022-09-21T10:47:14;95264.06;;;23.04;nan
9261;BME280;4667;42.726;23.252;2022-09-21T10:49:43;95252.00;;;22.92;nan
9261;BME280;4667;42.726;23.252;2022-09-21T10:52:13;95255.66;;;22.98;nan
9261;BME280;4667;42.726;23.252;2022-09-21T10:54:41;95242.78;;;24.14;nan
9261;BME280;4667;42.726;23.252;2022-09-21T10:57:13;95254.75;;;23.58;nan
9261;BME280;4667;42.726;23.252;2022-09-21T10:59:40;95247.84;;;24.01;nan
9261;BME280;4667;42.726;23.252;2022-09-21T11:02:25;95263.69;;;23.77;nan
9261;BME280;4667;42.726;23.252;2022-09-21T11:04:57;95257.84;;;23.98;nan
9261;BME280;4667;42.726;23.252;2022-09-21T11:07:31;95243.03;;;24.01;nan
9261;BME280;4667;42.726;23.252;2022-09-21T11:10:05;95244.53;;;23.40;nan
9261;BME280;4667;42.726;23.252;2022-09-21T11:12:46;95242.50;;;23.74;nan
9261;BME280;4667;42.726;23.252;2022-09-21T11:15:37;95240.72;;;24.24;nan
9261;BME280;4667;42.726;23.252;2022-09-21T11:18:12;95249.09;;;23.76;nan
9261;BME280;4667;42.726;23.252;2022-09-21T11:20:46;95249.88;;;23.77;nan
9261;BME280;4667;42.726;23.252;2022-09-21T11:23:29;95245.84;;;24.16;nan
9261;BME280;4667;42.726;23.252;2022-09-21T11:26:07;95257.34;;;24.38;nan
9261;BME280;4667;42.726;23.252;2022-09-21T11:28:42;95253.34;;;23.63;nan
9261;BME280;4667;42.726;23.252;2022-09-21T11:31:34;95250.84;;;22.57;nan
9261;BME280;4667;42.726;23.252;2022-09-21T11:34:21;95252.41;;;21.57;nan
9261;BME280;4667;42.726;23.252;2022-09-21T11:36:55;95242.91;;;21.58;nan
9261;BME280;4667;42.726;23.252;2022-09-21T11:39:42;95255.00;;;23.03;nan
9261;BME280;4667;42.726;23.252;2022-09-21T11:42:26;95251.00;;;23.85;nan
9261;BME280;4667;42.726;23.252;2022-09-21T11:44:59;95257.88;;;23.89;nan
9261;BME280;4667;42.726;23.252;2022-09-21T11:50:30;95253.41;;;23.77;nan
9261;BME280;4667;42.726;23.252;2022-09-21T11:53:16;95253.13;;;23.90;nan
9261;BME280;4667;42.726;23.252;2022-09-21T11:56:04;95252.53;;;23.71;nan
9261;BME280;4667;42.726;23.252;2022-09-21T11:58:37;95257.44;;;23.10;nan
9261;BME280;4667;42.726;23.252;2022-09-21T12:01:17;95266.25;;;23.00;nan
9261;BME280;4667;42.726;23.252;2022-09-21T12:04:12;95266.75;;;23.55;nan
9261;BME280;4667;42.726;23.252;2022-09-21T12:06:55;95263.06;;;23.96;nan
9261;BME280;4667;42.726;23.252;2022-09-21T12:09:57;95260.25;;;24.06;nan
9261;BME280;4667;42.726;23.252;2022-09-21T12:12:33;95258.44;;;24.17;nan
9261;BME280;4667;42.726;23.252;2022-09-21T12:15:08;95266.81;;;23.70;nan
9261;BME280;4667;42.726;23.252;2022-09-21T12:17:44;95270.78;;;23.12;nan
9261;BME280;4667;42.726;23.252;2022-09-21T12:20:19;95264.09;;;22.25;nan
9261;BME280;4667;42.726;23.252;2022-09-21T12:22:51;95264.09;;;22.25;nan
9261;BME280;4667;42.726;23.252;2022-09-21T12:25:20;95262.41;;;22.97;nan
9261;BME280;4667;42.726;23.252;2022-09-21T12:27:55;95256.41;;;22.99;nan
9261;BME280;4667;42.726;23.252;2022-09-21T12:30:24;95265.81;;;21.95;nan
9261;BME280;4667;42.726;23.252;2022-09-21T12:32:56;95260.56;;;21.79;nan
9261;BME280;4667;42.726;23.252;2022-09-21T12:35:28;95262.72;;;22.12;nan
9261;BME280;4667;42.726;23.252;2022-09-21T12:38:02;95266.22;;;22.39;nan
9261;BME280;4667;42.726;23.252;2022-09-21T12:40:36;95264.97;;;23.10;nan
9261;BME280;4667;42.726;23.252;2022-09-21T12:43:15;95269.06;;;23.24;nan
9261;BME280;4667;42.726;23.252;2022-09-21T12:45:50;95264.94;;;23.52;nan
9261;BME280;4667;42.726;23.252;2022-09-21T12:48:27;95260.34;;;24.11;nan
9261;BME280;4667;42.726;23.252;2022-09-21T12:50:57;95255.19;;;23.80;nan
9261;BME280;4667;42.726;23.252;2022-09-21T12:53:29;95257.97;;;23.56;nan
9261;BME280;4667;42.726;23.252;2022-09-21T12:56:02;95261.22;;;23.55;nan
9261;BME280;4667;42.726;23.252;2022-09-21T12:58:52;95254.84;;;23.87;nan
9261;BME280;4667;42.726;23.252;2022-09-21T13:01:30;95250.97;;;24.76;nan
9261;BME280;4667;42.726;23.252;2022-09-21T13:04:32;95253.63;;;24.71;nan
9261;BME280;4667;42.726;23.252;2022-09-21T13:07:35;95260.47;;;23.45;nan
9261;BME280;4667;42.726;23.252;2022-09-21T13:10:14;95249.00;;;22.63;nan
9261;BME280;4667;42.726;23.252;2022-09-21T13:12:43;95249.41;;;22.70;nan
9261;BME280;4667;42.726;23.252;2022-09-21T13:15:23;95238.63;;;22.39;nan
9261;BME280;4667;42.726;23.252;2022-09-21T13:17:59;95243.06;;;22.37;nan
9261;BME280;4667;42.726;23.252;2022-09-21T13:20:32;95237.69;;;22.52;nan
9261;BME280;4667;42.726;23.252;2022-09-21T13:23:00;95231.72;;;22.44;nan
9261;BME280;4667;42.726;23.252;2022-09-21T13:25:29;95235.03;;;23.08;nan
9261;BME280;4667;42.726;23.252;2022-09-21T13:28:02;95229.94;;;23.16;nan
9261;BME280;4667;42.726;23.252;2022-09-21T13:30:38;95232.56;;;23.10;nan
9261;BME280;4667;42.726;23.252;2022-09-21T13:33:36;95227.47;;;23.42;nan
9261;BME280;4667;42.726;23.252;2022-09-21T13:36:29;95225.72;;;23.77;nan
9261;BME280;4667;42.726;23.252;2022-09-21T13:39:03;95221.72;;;24.31;nan
9261;BME280;4667;42.726;23.252;2022-09-21T13:41:30;95223.84;;;24.51;nan
9261;BME280;4667;42.726;23.252;2022-09-21T13:44:02;95217.88;;;24.14;nan
9261;BME280;4667;42.726;23.252;2022-09-21T13:47:01;95225.78;;;23.68;nan
9261;BME280;4667;42.726;23.252;2022-09-21T13:49:38;95225.69;;;22.64;nan
9261;BME280;4667;42.726;23.252;2022-09-21T13:52:16;95224.06;;;21.57;nan
9261;BME280;4667;42.726;23.252;2022-09-21T13:54:49;95220.19;;;20.78;nan
9261;BME280;4667;42.726;23.252;2022-09-21T13:57:19;95228.41;;;19.94;nan
9261;BME280;4667;42.726;23.252;2022-09-21T14:00:02;95220.88;;;20.08;nan
9261;BME280;4667;42.726;23.252;2022-09-21T14:02:34;95226.88;;;20.37;nan
9261;BME280;4667;42.726;23.252;2022-09-21T14:05:06;95222.06;;;20.28;nan
9261;BME280;4667;42.726;23.252;2022-09-21T14:07:34;95220.34;;;20.22;nan
9261;BME280;4667;42.726;23.252;2022-09-21T14:10:07;95210.69;;;19.74;nan
9261;BME280;4667;42.726;23.252;2022-09-21T14:12:38;95220.13;;;19.38;nan
9261;BME280;4667;42.726;23.252;2022-09-21T14:15:38;95220.88;;;19.04;nan